<?xml version='1.0' encoding='UTF-8'?><gpx version="1.1" creator="JPX - https://github.com/jenetics/jpx" xmlns="http://www.topografix.com/GPX/1/1"><trk><trkseg><trkpt lat="42.5731371" lon="12.658676"><ele>143.0</ele><time>2026-04-24T08:46:17.033Z</time></trkpt><trkpt lat="42.5730638" lon="12.6588156"><ele>143.0</ele><time>2026-04-24T08:46:19.035Z</time></trkpt><trkpt lat="42.5730194" lon="12.6589357"><ele>143.0</ele><time>2026-04-24T08:46:21.046Z</time></trkpt><trkpt lat="42.5729485" lon="12.6590097"><ele>143.0</ele><time>2026-04-24T08:46:23.046Z</time></trkpt><trkpt lat="42.5728395" lon="12.659041"><ele>143.0</ele><time>2026-04-24T08:46:25.045Z</time></trkpt><trkpt lat="42.5727751" lon="12.659049"><ele>141.83333333333331</ele><time>2026-04-24T08:46:26.046Z</time></trkpt><trkpt lat="42.5727071" lon="12.6590289"><ele>140.66666666666666</ele><time>2026-04-24T08:46:27.045Z</time></trkpt><trkpt lat="42.5726325" lon="12.6590093"><ele>139.5</ele><time>2026-04-24T08:46:28.045Z</time></trkpt><trkpt lat="42.5725643" lon="12.6589894"><ele>138.33333333333334</ele><time>2026-04-24T08:46:29.045Z</time></trkpt><trkpt lat="42.5724592" lon="12.6589676"><ele>137.16666666666669</ele><time>2026-04-24T08:46:31.045Z</time></trkpt><trkpt lat="42.572395" lon="12.6589177"><ele>136.0</ele><time>2026-04-24T08:46:38.045Z</time></trkpt><trkpt lat="42.5723422" lon="12.6588591"><ele>136.0</ele><time>2026-04-24T08:46:39.045Z</time></trkpt><trkpt lat="42.5723242" lon="12.6587285"><ele>136.0</ele><time>2026-04-24T08:46:41.046Z</time></trkpt><trkpt lat="42.5723119" lon="12.6585992"><ele>136.0</ele><time>2026-04-24T08:46:42.046Z</time></trkpt><trkpt lat="42.5722937" lon="12.6584723"><ele>136.0</ele><time>2026-04-24T08:46:43.045Z</time></trkpt><trkpt lat="42.572295" lon="12.6583443"><ele>136.0</ele><time>2026-04-24T08:46:44.046Z</time></trkpt><trkpt lat="42.5722864" lon="12.6581678"><ele>136.0</ele><time>2026-04-24T08:46:45.046Z</time></trkpt><trkpt lat="42.5722827" lon="12.6580257"><ele>136.0</ele><time>2026-04-24T08:46:46.046Z</time></trkpt><trkpt lat="42.572285" lon="12.6578826"><ele>136.0</ele><time>2026-04-24T08:46:47.046Z</time></trkpt><trkpt lat="42.572271" lon="12.6576996"><ele>136.0</ele><time>2026-04-24T08:46:48.045Z</time></trkpt><trkpt lat="42.5722772" lon="12.6575226"><ele>135.5</ele><time>2026-04-24T08:46:49.046Z</time></trkpt><trkpt lat="42.5722614" lon="12.6573421"><ele>135.0</ele><time>2026-04-24T08:46:50.045Z</time></trkpt><trkpt lat="42.5722613" lon="12.6571792"><ele>134.5</ele><time>2026-04-24T08:46:51.046Z</time></trkpt><trkpt lat="42.5722546" lon="12.6570038"><ele>134.0</ele><time>2026-04-24T08:46:52.046Z</time></trkpt><trkpt lat="42.5722608" lon="12.6568506"><ele>134.0</ele><time>2026-04-24T08:46:53.045Z</time></trkpt><trkpt lat="42.572261" lon="12.6567013"><ele>134.0</ele><time>2026-04-24T08:46:54.045Z</time></trkpt><trkpt lat="42.5722729" lon="12.6565542"><ele>134.0</ele><time>2026-04-24T08:46:55.046Z</time></trkpt><trkpt lat="42.5722848" lon="12.656396"><ele>134.0</ele><time>2026-04-24T08:46:56.045Z</time></trkpt><trkpt lat="42.5722859" lon="12.6562428"><ele>134.0</ele><time>2026-04-24T08:46:57.045Z</time></trkpt><trkpt lat="42.5723027" lon="12.6561032"><ele>134.0</ele><time>2026-04-24T08:46:58.046Z</time></trkpt><trkpt lat="42.572309" lon="12.6559296"><ele>134.0</ele><time>2026-04-24T08:46:59.045Z</time></trkpt><trkpt lat="42.572316" lon="12.655779"><ele>134.0</ele><time>2026-04-24T08:47:00.045Z</time></trkpt><trkpt lat="42.5723249" lon="12.6556176"><ele>134.0</ele><time>2026-04-24T08:47:01.046Z</time></trkpt><trkpt lat="42.5723349" lon="12.6554606"><ele>134.0</ele><time>2026-04-24T08:47:02.046Z</time></trkpt><trkpt lat="42.5723273" lon="12.6552977"><ele>134.0</ele><time>2026-04-24T08:47:03.046Z</time></trkpt><trkpt lat="42.5723416" lon="12.6551373"><ele>134.0</ele><time>2026-04-24T08:47:04.046Z</time></trkpt><trkpt lat="42.5723483" lon="12.6549633"><ele>134.0</ele><time>2026-04-24T08:47:05.046Z</time></trkpt><trkpt lat="42.5723588" lon="12.6548165"><ele>134.0</ele><time>2026-04-24T08:47:06.046Z</time></trkpt><trkpt lat="42.5723702" lon="12.6546473"><ele>134.0</ele><time>2026-04-24T08:47:07.046Z</time></trkpt><trkpt lat="42.5723898" lon="12.6544813"><ele>134.0</ele><time>2026-04-24T08:47:08.045Z</time></trkpt><trkpt lat="42.5723917" lon="12.6542771"><ele>134.0</ele><time>2026-04-24T08:47:09.046Z</time></trkpt><trkpt lat="42.5724001" lon="12.654093"><ele>134.0</ele><time>2026-04-24T08:47:10.046Z</time></trkpt><trkpt lat="42.5724024" lon="12.6538965"><ele>134.0</ele><time>2026-04-24T08:47:11.046Z</time></trkpt><trkpt lat="42.5724087" lon="12.6537007"><ele>134.0</ele><time>2026-04-24T08:47:12.046Z</time></trkpt><trkpt lat="42.5724145" lon="12.6535167"><ele>134.0</ele><time>2026-04-24T08:47:13.046Z</time></trkpt><trkpt lat="42.5724246" lon="12.65333"><ele>133.75</ele><time>2026-04-24T08:47:14.045Z</time></trkpt><trkpt lat="42.5724325" lon="12.6531416"><ele>133.5</ele><time>2026-04-24T08:47:15.046Z</time></trkpt><trkpt lat="42.5724254" lon="12.6529481"><ele>133.25</ele><time>2026-04-24T08:47:16.046Z</time></trkpt><trkpt lat="42.5724307" lon="12.6527747"><ele>133.0</ele><time>2026-04-24T08:47:17.046Z</time></trkpt><trkpt lat="42.5724281" lon="12.6525584"><ele>131.75</ele><time>2026-04-24T08:47:18.046Z</time></trkpt><trkpt lat="42.5724441" lon="12.652359"><ele>130.5</ele><time>2026-04-24T08:47:19.045Z</time></trkpt><trkpt lat="42.5724522" lon="12.6521601"><ele>129.25</ele><time>2026-04-24T08:47:20.046Z</time></trkpt><trkpt lat="42.5724673" lon="12.6519718"><ele>128.0</ele><time>2026-04-24T08:47:21.045Z</time></trkpt><trkpt lat="42.5724852" lon="12.6517792"><ele>128.0</ele><time>2026-04-24T08:47:22.046Z</time></trkpt><trkpt lat="42.5725193" lon="12.6515752"><ele>128.0</ele><time>2026-04-24T08:47:23.046Z</time></trkpt><trkpt lat="42.5725729" lon="12.6513999"><ele>128.0</ele><time>2026-04-24T08:47:24.046Z</time></trkpt><trkpt lat="42.5726106" lon="12.6512237"><ele>128.0</ele><time>2026-04-24T08:47:25.045Z</time></trkpt><trkpt lat="42.5726649" lon="12.6510486"><ele>127.75</ele><time>2026-04-24T08:47:26.045Z</time></trkpt><trkpt lat="42.5727233" lon="12.6508609"><ele>127.5</ele><time>2026-04-24T08:47:27.046Z</time></trkpt><trkpt lat="42.5727811" lon="12.6506727"><ele>127.25</ele><time>2026-04-24T08:47:28.045Z</time></trkpt><trkpt lat="42.5728376" lon="12.6504888"><ele>127.0</ele><time>2026-04-24T08:47:29.045Z</time></trkpt><trkpt lat="42.5728917" lon="12.6503106"><ele>128.0</ele><time>2026-04-24T08:47:30.045Z</time></trkpt><trkpt lat="42.5729406" lon="12.6501346"><ele>129.0</ele><time>2026-04-24T08:47:31.045Z</time></trkpt><trkpt lat="42.5729927" lon="12.6499589"><ele>130.0</ele><time>2026-04-24T08:47:32.046Z</time></trkpt><trkpt lat="42.5730468" lon="12.6497931"><ele>131.0</ele><time>2026-04-24T08:47:33.045Z</time></trkpt><trkpt lat="42.5731022" lon="12.649647"><ele>131.0</ele><time>2026-04-24T08:47:34.046Z</time></trkpt><trkpt lat="42.5731459" lon="12.6494831"><ele>131.0</ele><time>2026-04-24T08:47:35.045Z</time></trkpt><trkpt lat="42.5731909" lon="12.6493233"><ele>131.0</ele><time>2026-04-24T08:47:36.046Z</time></trkpt><trkpt lat="42.5732378" lon="12.6491442"><ele>131.0</ele><time>2026-04-24T08:47:37.046Z</time></trkpt><trkpt lat="42.5732824" lon="12.6489677"><ele>130.5</ele><time>2026-04-24T08:47:38.046Z</time></trkpt><trkpt lat="42.573333" lon="12.648788"><ele>130.0</ele><time>2026-04-24T08:47:39.045Z</time></trkpt><trkpt lat="42.5733906" lon="12.6486091"><ele>129.5</ele><time>2026-04-24T08:47:40.046Z</time></trkpt><trkpt lat="42.5734448" lon="12.6484223"><ele>129.0</ele><time>2026-04-24T08:47:41.045Z</time></trkpt><trkpt lat="42.5735063" lon="12.6482603"><ele>129.0</ele><time>2026-04-24T08:47:42.046Z</time></trkpt><trkpt lat="42.5735617" lon="12.6480805"><ele>129.0</ele><time>2026-04-24T08:47:43.045Z</time></trkpt><trkpt lat="42.5736141" lon="12.6479085"><ele>129.0</ele><time>2026-04-24T08:47:44.046Z</time></trkpt><trkpt lat="42.5736618" lon="12.6477528"><ele>129.0</ele><time>2026-04-24T08:47:45.046Z</time></trkpt><trkpt lat="42.5736818" lon="12.6476095"><ele>129.6</ele><time>2026-04-24T08:47:46.045Z</time></trkpt><trkpt lat="42.5737212" lon="12.6474709"><ele>130.2</ele><time>2026-04-24T08:47:47.045Z</time></trkpt><trkpt lat="42.5737525" lon="12.6473333"><ele>130.79999999999998</ele><time>2026-04-24T08:47:48.046Z</time></trkpt><trkpt lat="42.5737866" lon="12.6471979"><ele>131.4</ele><time>2026-04-24T08:47:49.045Z</time></trkpt><trkpt lat="42.573826" lon="12.6470767"><ele>132.0</ele><time>2026-04-24T08:47:50.046Z</time></trkpt><trkpt lat="42.5738583" lon="12.646953"><ele>132.0</ele><time>2026-04-24T08:47:51.045Z</time></trkpt><trkpt lat="42.5738987" lon="12.6468369"><ele>132.0</ele><time>2026-04-24T08:47:52.046Z</time></trkpt><trkpt lat="42.5739444" lon="12.6467275"><ele>132.0</ele><time>2026-04-24T08:47:53.045Z</time></trkpt><trkpt lat="42.5739767" lon="12.6466347"><ele>132.0</ele><time>2026-04-24T08:47:54.045Z</time></trkpt><trkpt lat="42.5740092" lon="12.6465526"><ele>132.0</ele><time>2026-04-24T08:47:55.046Z</time></trkpt><trkpt lat="42.5740422" lon="12.6464788"><ele>132.0</ele><time>2026-04-24T08:47:56.046Z</time></trkpt><trkpt lat="42.574118" lon="12.6463501"><ele>132.0</ele><time>2026-04-24T08:47:58.046Z</time></trkpt><trkpt lat="42.5741911" lon="12.6462232"><ele>132.0</ele><time>2026-04-24T08:48:00.045Z</time></trkpt><trkpt lat="42.5742052" lon="12.6461371"><ele>132.0</ele><time>2026-04-24T08:48:01.046Z</time></trkpt><trkpt lat="42.5742088" lon="12.6460465"><ele>132.0</ele><time>2026-04-24T08:48:02.046Z</time></trkpt><trkpt lat="42.5741891" lon="12.6459432"><ele>132.0</ele><time>2026-04-24T08:48:03.046Z</time></trkpt><trkpt lat="42.5741829" lon="12.6458433"><ele>132.0</ele><time>2026-04-24T08:48:04.046Z</time></trkpt><trkpt lat="42.5741927" lon="12.6457344"><ele>131.83333333333334</ele><time>2026-04-24T08:48:05.046Z</time></trkpt><trkpt lat="42.5741797" lon="12.6456099"><ele>131.66666666666666</ele><time>2026-04-24T08:48:06.045Z</time></trkpt><trkpt lat="42.5741815" lon="12.6455109"><ele>131.5</ele><time>2026-04-24T08:48:07.046Z</time></trkpt><trkpt lat="42.5741798" lon="12.645395"><ele>131.33333333333331</ele><time>2026-04-24T08:48:08.046Z</time></trkpt><trkpt lat="42.5741838" lon="12.6452964"><ele>131.16666666666666</ele><time>2026-04-24T08:48:09.046Z</time></trkpt><trkpt lat="42.574192" lon="12.6451693"><ele>131.0</ele><time>2026-04-24T08:48:10.046Z</time></trkpt><trkpt lat="42.5741996" lon="12.6450472"><ele>131.0</ele><time>2026-04-24T08:48:11.045Z</time></trkpt><trkpt lat="42.5742017" lon="12.6449339"><ele>131.0</ele><time>2026-04-24T08:48:12.045Z</time></trkpt><trkpt lat="42.5742033" lon="12.6448164"><ele>131.0</ele><time>2026-04-24T08:48:13.046Z</time></trkpt><trkpt lat="42.5742102" lon="12.6446937"><ele>131.0</ele><time>2026-04-24T08:48:14.045Z</time></trkpt><trkpt lat="42.5742089" lon="12.6445656"><ele>131.0</ele><time>2026-04-24T08:48:15.046Z</time></trkpt><trkpt lat="42.5742087" lon="12.6444341"><ele>130.5</ele><time>2026-04-24T08:48:16.045Z</time></trkpt><trkpt lat="42.574217" lon="12.6443122"><ele>130.0</ele><time>2026-04-24T08:48:17.045Z</time></trkpt><trkpt lat="42.5742189" lon="12.6441978"><ele>129.5</ele><time>2026-04-24T08:48:18.045Z</time></trkpt><trkpt lat="42.5742276" lon="12.6440988"><ele>129.0</ele><time>2026-04-24T08:48:19.045Z</time></trkpt><trkpt lat="42.5742428" lon="12.6439974"><ele>128.5</ele><time>2026-04-24T08:48:20.046Z</time></trkpt><trkpt lat="42.5742582" lon="12.6438797"><ele>128.0</ele><time>2026-04-24T08:48:21.046Z</time></trkpt><trkpt lat="42.5742775" lon="12.6437563"><ele>127.80000000000001</ele><time>2026-04-24T08:48:22.045Z</time></trkpt><trkpt lat="42.5743038" lon="12.6436232"><ele>127.60000000000001</ele><time>2026-04-24T08:48:23.046Z</time></trkpt><trkpt lat="42.5743195" lon="12.6434918"><ele>127.39999999999999</ele><time>2026-04-24T08:48:24.046Z</time></trkpt><trkpt lat="42.5743272" lon="12.6433617"><ele>127.19999999999999</ele><time>2026-04-24T08:48:25.045Z</time></trkpt><trkpt lat="42.5743373" lon="12.6432154"><ele>127.0</ele><time>2026-04-24T08:48:26.045Z</time></trkpt><trkpt lat="42.5743471" lon="12.6430684"><ele>127.0</ele><time>2026-04-24T08:48:27.045Z</time></trkpt><trkpt lat="42.5743602" lon="12.6429148"><ele>127.0</ele><time>2026-04-24T08:48:28.046Z</time></trkpt><trkpt lat="42.5743707" lon="12.6427553"><ele>127.0</ele><time>2026-04-24T08:48:29.046Z</time></trkpt><trkpt lat="42.5743731" lon="12.642583"><ele>127.0</ele><time>2026-04-24T08:48:30.046Z</time></trkpt><trkpt lat="42.5743909" lon="12.642439"><ele>127.0</ele><time>2026-04-24T08:48:31.046Z</time></trkpt><trkpt lat="42.5743936" lon="12.6422943"><ele>126.99999999999999</ele><time>2026-04-24T08:48:32.045Z</time></trkpt><trkpt lat="42.5743812" lon="12.6421489"><ele>126.99999999999999</ele><time>2026-04-24T08:48:33.046Z</time></trkpt><trkpt lat="42.5743688" lon="12.6420227"><ele>127.0</ele><time>2026-04-24T08:48:34.046Z</time></trkpt><trkpt lat="42.5743392" lon="12.6418899"><ele>127.0</ele><time>2026-04-24T08:48:35.046Z</time></trkpt><trkpt lat="42.5743086" lon="12.6417616"><ele>127.0</ele><time>2026-04-24T08:48:36.046Z</time></trkpt><trkpt lat="42.5742736" lon="12.6416234"><ele>126.99999999999999</ele><time>2026-04-24T08:48:37.046Z</time></trkpt><trkpt lat="42.5742389" lon="12.6414864"><ele>126.99999999999999</ele><time>2026-04-24T08:48:38.046Z</time></trkpt><trkpt lat="42.5742002" lon="12.6413694"><ele>127.0</ele><time>2026-04-24T08:48:39.046Z</time></trkpt><trkpt lat="42.5741602" lon="12.6412232"><ele>127.0</ele><time>2026-04-24T08:48:40.045Z</time></trkpt><trkpt lat="42.5740979" lon="12.6410715"><ele>127.6</ele><time>2026-04-24T08:48:41.046Z</time></trkpt><trkpt lat="42.5740377" lon="12.6409367"><ele>128.2</ele><time>2026-04-24T08:48:42.046Z</time></trkpt><trkpt lat="42.5740034" lon="12.6408146"><ele>128.8</ele><time>2026-04-24T08:48:43.046Z</time></trkpt><trkpt lat="42.5739549" lon="12.6406876"><ele>129.4</ele><time>2026-04-24T08:48:44.045Z</time></trkpt><trkpt lat="42.573912" lon="12.6405512"><ele>130.0</ele><time>2026-04-24T08:48:45.046Z</time></trkpt><trkpt lat="42.5738838" lon="12.6404123"><ele>130.16666666666669</ele><time>2026-04-24T08:48:46.046Z</time></trkpt><trkpt lat="42.5738508" lon="12.6402686"><ele>130.33333333333334</ele><time>2026-04-24T08:48:47.046Z</time></trkpt><trkpt lat="42.5738335" lon="12.6401456"><ele>130.5</ele><time>2026-04-24T08:48:48.045Z</time></trkpt><trkpt lat="42.5738223" lon="12.6400247"><ele>130.66666666666666</ele><time>2026-04-24T08:48:49.045Z</time></trkpt><trkpt lat="42.5738078" lon="12.6399341"><ele>130.83333333333331</ele><time>2026-04-24T08:48:50.046Z</time></trkpt><trkpt lat="42.5737863" lon="12.6398225"><ele>131.0</ele><time>2026-04-24T08:48:51.046Z</time></trkpt><trkpt lat="42.5737736" lon="12.63971"><ele>131.0</ele><time>2026-04-24T08:48:52.046Z</time></trkpt><trkpt lat="42.5737767" lon="12.6395969"><ele>131.0</ele><time>2026-04-24T08:48:53.045Z</time></trkpt><trkpt lat="42.5737869" lon="12.6394607"><ele>131.0</ele><time>2026-04-24T08:48:54.045Z</time></trkpt><trkpt lat="42.5737896" lon="12.6393242"><ele>131.0</ele><time>2026-04-24T08:48:55.045Z</time></trkpt><trkpt lat="42.5737682" lon="12.639206"><ele>131.0</ele><time>2026-04-24T08:48:56.046Z</time></trkpt><trkpt lat="42.5737328" lon="12.6390888"><ele>130.2</ele><time>2026-04-24T08:48:57.046Z</time></trkpt><trkpt lat="42.5736805" lon="12.6389982"><ele>129.39999999999998</ele><time>2026-04-24T08:48:58.046Z</time></trkpt><trkpt lat="42.5736284" lon="12.6389016"><ele>128.6</ele><time>2026-04-24T08:48:59.046Z</time></trkpt><trkpt lat="42.5735543" lon="12.6388396"><ele>127.8</ele><time>2026-04-24T08:49:00.045Z</time></trkpt><trkpt lat="42.5734347" lon="12.6388212"><ele>127.0</ele><time>2026-04-24T08:49:01.046Z</time></trkpt><trkpt lat="42.5733579" lon="12.6388176"><ele>127.00000000000001</ele><time>2026-04-24T08:49:02.045Z</time></trkpt><trkpt lat="42.5732834" lon="12.6388805"><ele>127.0</ele><time>2026-04-24T08:49:03.046Z</time></trkpt><trkpt lat="42.5732127" lon="12.6389414"><ele>127.0</ele><time>2026-04-24T08:49:04.045Z</time></trkpt><trkpt lat="42.5731487" lon="12.6390197"><ele>127.0</ele><time>2026-04-24T08:49:05.046Z</time></trkpt><trkpt lat="42.5731055" lon="12.6391338"><ele>127.00000000000001</ele><time>2026-04-24T08:49:06.046Z</time></trkpt><trkpt lat="42.5730544" lon="12.6392463"><ele>127.0</ele><time>2026-04-24T08:49:07.046Z</time></trkpt><trkpt lat="42.572988" lon="12.639366"><ele>127.0</ele><time>2026-04-24T08:49:08.046Z</time></trkpt><trkpt lat="42.5729238" lon="12.6394836"><ele>127.0</ele><time>2026-04-24T08:49:09.046Z</time></trkpt><trkpt lat="42.5728283" lon="12.6395584"><ele>127.0</ele><time>2026-04-24T08:49:10.046Z</time></trkpt><trkpt lat="42.5727315" lon="12.6396229"><ele>127.0</ele><time>2026-04-24T08:49:11.045Z</time></trkpt><trkpt lat="42.5725984" lon="12.6396956"><ele>126.75</ele><time>2026-04-24T08:49:12.046Z</time></trkpt><trkpt lat="42.5724847" lon="12.6397625"><ele>126.5</ele><time>2026-04-24T08:49:13.046Z</time></trkpt><trkpt lat="42.5723678" lon="12.6398569"><ele>126.25</ele><time>2026-04-24T08:49:14.046Z</time></trkpt><trkpt lat="42.5722854" lon="12.6399602"><ele>126.0</ele><time>2026-04-24T08:49:15.046Z</time></trkpt><trkpt lat="42.572206" lon="12.6400831"><ele>126.0</ele><time>2026-04-24T08:49:16.045Z</time></trkpt><trkpt lat="42.5721461" lon="12.640228"><ele>126.0</ele><time>2026-04-24T08:49:17.045Z</time></trkpt><trkpt lat="42.5720869" lon="12.6403602"><ele>126.0</ele><time>2026-04-24T08:49:18.045Z</time></trkpt><trkpt lat="42.5720256" lon="12.640512"><ele>126.0</ele><time>2026-04-24T08:49:19.046Z</time></trkpt><trkpt lat="42.5719541" lon="12.6406506"><ele>125.75</ele><time>2026-04-24T08:49:20.045Z</time></trkpt><trkpt lat="42.5718492" lon="12.6408014"><ele>125.5</ele><time>2026-04-24T08:49:21.045Z</time></trkpt><trkpt lat="42.5717486" lon="12.6409345"><ele>125.25</ele><time>2026-04-24T08:49:22.046Z</time></trkpt><trkpt lat="42.5716416" lon="12.6410653"><ele>125.0</ele><time>2026-04-24T08:49:23.046Z</time></trkpt><trkpt lat="42.5715204" lon="12.6411902"><ele>125.0</ele><time>2026-04-24T08:49:24.045Z</time></trkpt><trkpt lat="42.5713968" lon="12.6413088"><ele>125.0</ele><time>2026-04-24T08:49:25.045Z</time></trkpt><trkpt lat="42.5712833" lon="12.641429"><ele>125.0</ele><time>2026-04-24T08:49:26.046Z</time></trkpt><trkpt lat="42.5711247" lon="12.641544"><ele>125.0</ele><time>2026-04-24T08:49:27.045Z</time></trkpt><trkpt lat="42.5710022" lon="12.6416593"><ele>125.0</ele><time>2026-04-24T08:49:28.046Z</time></trkpt><trkpt lat="42.5708658" lon="12.6417672"><ele>125.0</ele><time>2026-04-24T08:49:29.046Z</time></trkpt><trkpt lat="42.570735" lon="12.6418562"><ele>125.0</ele><time>2026-04-24T08:49:30.046Z</time></trkpt><trkpt lat="42.5705998" lon="12.6419604"><ele>125.0</ele><time>2026-04-24T08:49:31.045Z</time></trkpt><trkpt lat="42.5704643" lon="12.6420667"><ele>125.0</ele><time>2026-04-24T08:49:32.046Z</time></trkpt><trkpt lat="42.5696601" lon="12.6444293"><ele>126.0</ele><time>2026-04-24T08:49:46.045Z</time></trkpt><trkpt lat="42.5696298" lon="12.6446731"><ele>127.0</ele><time>2026-04-24T08:49:47.045Z</time></trkpt><trkpt lat="42.569616" lon="12.6449166"><ele>128.0</ele><time>2026-04-24T08:49:48.045Z</time></trkpt><trkpt lat="42.5696208" lon="12.6451494"><ele>128.66666666666666</ele><time>2026-04-24T08:49:49.046Z</time></trkpt><trkpt lat="42.5696205" lon="12.6453995"><ele>129.33333333333334</ele><time>2026-04-24T08:49:50.046Z</time></trkpt><trkpt lat="42.5696336" lon="12.6456389"><ele>130.0</ele><time>2026-04-24T08:49:51.046Z</time></trkpt><trkpt lat="42.5696455" lon="12.6458577"><ele>130.0</ele><time>2026-04-24T08:49:52.045Z</time></trkpt><trkpt lat="42.569655" lon="12.6460716"><ele>130.0</ele><time>2026-04-24T08:49:53.046Z</time></trkpt><trkpt lat="42.5696724" lon="12.6462912"><ele>130.0</ele><time>2026-04-24T08:49:54.046Z</time></trkpt><trkpt lat="42.5696726" lon="12.6465006"><ele>129.66666666666669</ele><time>2026-04-24T08:49:55.046Z</time></trkpt><trkpt lat="42.5696781" lon="12.6467053"><ele>129.33333333333334</ele><time>2026-04-24T08:49:56.046Z</time></trkpt><trkpt lat="42.569684" lon="12.6469173"><ele>129.0</ele><time>2026-04-24T08:49:57.045Z</time></trkpt><trkpt lat="42.5696933" lon="12.647123"><ele>129.0</ele><time>2026-04-24T08:49:58.046Z</time></trkpt><trkpt lat="42.5697016" lon="12.6473301"><ele>129.0</ele><time>2026-04-24T08:49:59.045Z</time></trkpt><trkpt lat="42.5697173" lon="12.6475466"><ele>129.0</ele><time>2026-04-24T08:50:00.046Z</time></trkpt><trkpt lat="42.5697277" lon="12.6477741"><ele>128.66666666666666</ele><time>2026-04-24T08:50:01.045Z</time></trkpt><trkpt lat="42.5697283" lon="12.648"><ele>128.33333333333331</ele><time>2026-04-24T08:50:02.045Z</time></trkpt><trkpt lat="42.5697291" lon="12.6482288"><ele>128.0</ele><time>2026-04-24T08:50:03.046Z</time></trkpt><trkpt lat="42.5697417" lon="12.6484505"><ele>128.0</ele><time>2026-04-24T08:50:04.045Z</time></trkpt><trkpt lat="42.5697461" lon="12.6486679"><ele>128.0</ele><time>2026-04-24T08:50:05.046Z</time></trkpt><trkpt lat="42.569755" lon="12.6488582"><ele>128.0</ele><time>2026-04-24T08:50:06.046Z</time></trkpt><trkpt lat="42.5697584" lon="12.6490499"><ele>128.0</ele><time>2026-04-24T08:50:07.045Z</time></trkpt><trkpt lat="42.5697644" lon="12.6492393"><ele>128.0</ele><time>2026-04-24T08:50:08.046Z</time></trkpt><trkpt lat="42.569763" lon="12.6494049"><ele>128.0</ele><time>2026-04-24T08:50:09.046Z</time></trkpt><trkpt lat="42.5697582" lon="12.649571"><ele>128.0</ele><time>2026-04-24T08:50:10.045Z</time></trkpt><trkpt lat="42.5697622" lon="12.6497332"><ele>128.0</ele><time>2026-04-24T08:50:11.045Z</time></trkpt><trkpt lat="42.5697745" lon="12.6498661"><ele>128.4</ele><time>2026-04-24T08:50:12.045Z</time></trkpt><trkpt lat="42.5697687" lon="12.6500038"><ele>128.8</ele><time>2026-04-24T08:50:13.045Z</time></trkpt><trkpt lat="42.5697781" lon="12.6501038"><ele>129.2</ele><time>2026-04-24T08:50:14.046Z</time></trkpt><trkpt lat="42.56978" lon="12.6502195"><ele>129.6</ele><time>2026-04-24T08:50:15.045Z</time></trkpt><trkpt lat="42.5697754" lon="12.6503199"><ele>130.0</ele><time>2026-04-24T08:50:16.045Z</time></trkpt><trkpt lat="42.5697047" lon="12.650448"><ele>130.0</ele><time>2026-04-24T08:50:18.046Z</time></trkpt><trkpt lat="42.5696494" lon="12.650554"><ele>130.0</ele><time>2026-04-24T08:50:20.046Z</time></trkpt><trkpt lat="42.5695944" lon="12.6505991"><ele>130.0</ele><time>2026-04-24T08:50:21.046Z</time></trkpt><trkpt lat="42.5694321" lon="12.6504506"><ele>130.0</ele><time>2026-04-24T08:50:23.045Z</time></trkpt><trkpt lat="42.5693603" lon="12.6504149"><ele>130.0</ele><time>2026-04-24T08:50:24.045Z</time></trkpt><trkpt lat="42.5692909" lon="12.6503559"><ele>130.66666666666669</ele><time>2026-04-24T08:50:25.045Z</time></trkpt><trkpt lat="42.5692167" lon="12.6503405"><ele>131.33333333333334</ele><time>2026-04-24T08:50:26.046Z</time></trkpt><trkpt lat="42.5691279" lon="12.6502728"><ele>132.0</ele><time>2026-04-24T08:50:27.045Z</time></trkpt><trkpt lat="42.5690381" lon="12.6502132"><ele>132.66666666666666</ele><time>2026-04-24T08:50:28.045Z</time></trkpt><trkpt lat="42.5689575" lon="12.6501659"><ele>133.33333333333331</ele><time>2026-04-24T08:50:29.046Z</time></trkpt><trkpt lat="42.5688952" lon="12.6501455"><ele>134.0</ele><time>2026-04-24T08:50:30.045Z</time></trkpt><trkpt lat="42.5687862" lon="12.6500942"><ele>134.0</ele><time>2026-04-24T08:50:32.045Z</time></trkpt><trkpt lat="42.5687108" lon="12.6500917"><ele>134.0</ele><time>2026-04-24T08:50:33.045Z</time></trkpt><trkpt lat="42.5686404" lon="12.6500708"><ele>134.0</ele><time>2026-04-24T08:50:34.045Z</time></trkpt><trkpt lat="42.5685568" lon="12.6499904"><ele>134.0</ele><time>2026-04-24T08:50:36.046Z</time></trkpt><trkpt lat="42.5684448" lon="12.6499761"><ele>134.0</ele><time>2026-04-24T08:50:38.046Z</time></trkpt><trkpt lat="42.5683487" lon="12.6499441"><ele>134.0</ele><time>2026-04-24T08:50:41.046Z</time></trkpt><trkpt lat="42.5682185" lon="12.6498879"><ele>134.0</ele><time>2026-04-24T08:50:43.046Z</time></trkpt><trkpt lat="42.568156" lon="12.6498675"><ele>134.0</ele><time>2026-04-24T08:50:44.046Z</time></trkpt><trkpt lat="42.5680861" lon="12.6498408"><ele>134.0</ele><time>2026-04-24T08:50:45.045Z</time></trkpt><trkpt lat="42.5680158" lon="12.649816"><ele>134.0</ele><time>2026-04-24T08:50:46.046Z</time></trkpt><trkpt lat="42.5679534" lon="12.6497748"><ele>134.0</ele><time>2026-04-24T08:50:47.045Z</time></trkpt><trkpt lat="42.5678645" lon="12.6497155"><ele>133.4</ele><time>2026-04-24T08:50:49.046Z</time></trkpt><trkpt lat="42.5677541" lon="12.6497049"><ele>132.8</ele><time>2026-04-24T08:50:51.045Z</time></trkpt><trkpt lat="42.5676712" lon="12.6496728"><ele>132.2</ele><time>2026-04-24T08:50:53.046Z</time></trkpt><trkpt lat="42.5676037" lon="12.6496383"><ele>131.6</ele><time>2026-04-24T08:50:55.045Z</time></trkpt><trkpt lat="42.5675208" lon="12.6495916"><ele>131.0</ele><time>2026-04-24T08:50:57.045Z</time></trkpt><trkpt lat="42.5674216" lon="12.6495419"><ele>131.0</ele><time>2026-04-24T08:51:00.046Z</time></trkpt><trkpt lat="42.5673519" lon="12.6495146"><ele>131.0</ele><time>2026-04-24T08:51:01.046Z</time></trkpt><trkpt lat="42.5672906" lon="12.6494837"><ele>131.0</ele><time>2026-04-24T08:51:02.045Z</time></trkpt><trkpt lat="42.5672213" lon="12.6494672"><ele>131.0</ele><time>2026-04-24T08:51:03.046Z</time></trkpt><trkpt lat="42.5671555" lon="12.6494421"><ele>131.0</ele><time>2026-04-24T08:51:04.046Z</time></trkpt><trkpt lat="42.5670477" lon="12.6494"><ele>131.0</ele><time>2026-04-24T08:51:06.046Z</time></trkpt><trkpt lat="42.5669532" lon="12.6493188"><ele>131.0</ele><time>2026-04-24T08:51:08.046Z</time></trkpt><trkpt lat="42.5669016" lon="12.6492691"><ele>131.0</ele><time>2026-04-24T08:51:10.045Z</time></trkpt><trkpt lat="42.5668712" lon="12.6491729"><ele>131.0</ele><time>2026-04-24T08:51:13.046Z</time></trkpt><trkpt lat="42.5668533" lon="12.6490737"><ele>131.0</ele><time>2026-04-24T08:51:17.046Z</time></trkpt><trkpt lat="42.5667999" lon="12.6490132"><ele>131.0</ele><time>2026-04-24T08:51:22.046Z</time></trkpt><trkpt lat="42.566688" lon="12.6490047"><ele>131.0</ele><time>2026-04-24T08:52:56.046Z</time></trkpt><trkpt lat="42.5666272" lon="12.6489586"><ele>131.0</ele><time>2026-04-24T08:53:02.045Z</time></trkpt><trkpt lat="42.5665846" lon="12.6488909"><ele>131.0</ele><time>2026-04-24T08:53:05.046Z</time></trkpt><trkpt lat="42.5665631" lon="12.6487806"><ele>131.0</ele><time>2026-04-24T08:53:08.046Z</time></trkpt><trkpt lat="42.566586" lon="12.6486572"><ele>131.0</ele><time>2026-04-24T08:53:10.046Z</time></trkpt><trkpt lat="42.5666021" lon="12.6485095"><ele>131.0</ele><time>2026-04-24T08:53:12.045Z</time></trkpt><trkpt lat="42.5666097" lon="12.648414"><ele>131.0</ele><time>2026-04-24T08:53:13.046Z</time></trkpt><trkpt lat="42.5666193" lon="12.6483135"><ele>131.33333333333331</ele><time>2026-04-24T08:53:14.045Z</time></trkpt><trkpt lat="42.5666449" lon="12.648223"><ele>131.66666666666666</ele><time>2026-04-24T08:53:15.046Z</time></trkpt><trkpt lat="42.5666684" lon="12.6481347"><ele>132.0</ele><time>2026-04-24T08:53:16.046Z</time></trkpt><trkpt lat="42.5666813" lon="12.6480397"><ele>132.33333333333334</ele><time>2026-04-24T08:53:17.045Z</time></trkpt><trkpt lat="42.5666936" lon="12.6479476"><ele>132.66666666666669</ele><time>2026-04-24T08:53:18.045Z</time></trkpt><trkpt lat="42.5667109" lon="12.6478612"><ele>133.0</ele><time>2026-04-24T08:53:19.045Z</time></trkpt><trkpt lat="42.5667616" lon="12.6477248"><ele>133.20000000000002</ele><time>2026-04-24T08:53:21.046Z</time></trkpt><trkpt lat="42.5667811" lon="12.6475925"><ele>133.4</ele><time>2026-04-24T08:53:23.045Z</time></trkpt><trkpt lat="42.5668112" lon="12.6474562"><ele>133.60000000000002</ele><time>2026-04-24T08:53:25.046Z</time></trkpt><trkpt lat="42.5668236" lon="12.6473305"><ele>133.8</ele><time>2026-04-24T08:53:27.046Z</time></trkpt><trkpt lat="42.5668833" lon="12.6472519"><ele>134.0</ele><time>2026-04-24T08:53:29.046Z</time></trkpt><trkpt lat="42.5668922" lon="12.647065"><ele>134.0</ele><time>2026-04-24T08:53:31.046Z</time></trkpt><trkpt lat="42.5669624" lon="12.6469555"><ele>134.0</ele><time>2026-04-24T08:53:33.046Z</time></trkpt><trkpt lat="42.5669814" lon="12.6468476"><ele>134.0</ele><time>2026-04-24T08:53:35.045Z</time></trkpt><trkpt lat="42.5670511" lon="12.6468003"><ele>134.0</ele><time>2026-04-24T08:53:42.045Z</time></trkpt><trkpt lat="42.567184" lon="12.6468759"><ele>134.0</ele><time>2026-04-24T08:53:44.046Z</time></trkpt><trkpt lat="42.5672754" lon="12.6468756"><ele>134.0</ele><time>2026-04-24T08:53:46.045Z</time></trkpt><trkpt lat="42.5673348" lon="12.6469253"><ele>134.0</ele><time>2026-04-24T08:53:48.046Z</time></trkpt><trkpt lat="42.5673228" lon="12.6471026"><ele>134.0</ele><time>2026-04-24T08:53:54.046Z</time></trkpt><trkpt lat="42.5673179" lon="12.647201"><ele>134.0</ele><time>2026-04-24T08:53:55.046Z</time></trkpt><trkpt lat="42.5672891" lon="12.6473824"><ele>134.0</ele><time>2026-04-24T08:53:57.046Z</time></trkpt><trkpt lat="42.5672444" lon="12.6475182"><ele>136.0</ele><time>2026-04-24T08:53:59.046Z</time></trkpt><trkpt lat="42.5672225" lon="12.6476757"><ele>136.0</ele><time>2026-04-24T08:54:01.045Z</time></trkpt></trkseg></trk></gpx>